createdAt,value
2022-10-23T00:01:13.827Z,12.80
2022-10-23T00:03:41.754Z,12.70
2022-10-23T00:06:09.678Z,12.70
2022-10-23T00:08:37.542Z,12.60
2022-10-23T00:11:07.253Z,12.60
2022-10-23T00:13:36.472Z,12.60
2022-10-23T00:16:04.399Z,12.50
2022-10-23T00:18:32.212Z,12.60
2022-10-23T00:21:13.378Z,12.50
2022-10-23T00:23:50.293Z,12.50
2022-10-23T00:26:18.260Z,12.60
2022-10-23T00:28:49.193Z,12.50
2022-10-23T00:31:17.064Z,12.40
2022-10-23T00:33:44.930Z,12.40
2022-10-23T00:36:14.463Z,12.40
2022-10-23T00:38:44.703Z,12.40
2022-10-23T00:41:15.633Z,12.40
2022-10-23T00:43:58.809Z,12.30
2022-10-23T00:46:26.654Z,12.30
2022-10-23T00:48:54.563Z,12.40
2022-10-23T00:51:22.530Z,12.40
2022-10-23T00:54:01.166Z,12.40
2022-10-23T00:56:42.977Z,12.40
2022-10-23T00:59:13.068Z,12.40
2022-10-23T01:01:41.316Z,12.40
2022-10-23T01:04:09.599Z,12.50
2022-10-23T01:06:39.059Z,12.50
2022-10-23T01:09:11.949Z,12.50
2022-10-23T01:11:43.332Z,12.60
2022-10-23T01:14:17.359Z,12.60
2022-10-23T01:16:48.429Z,12.60
2022-10-23T01:19:21.499Z,12.60
2022-10-23T01:21:55.112Z,12.60
2022-10-23T01:24:43.426Z,12.50
2022-10-23T01:27:20.926Z,12.50
2022-10-23T01:29:55.692Z,12.50
2022-10-23T01:32:35.411Z,12.40
2022-10-23T01:35:06.123Z,12.30
2022-10-23T01:37:36.341Z,12.30
2022-10-23T01:40:10.237Z,12.40
2022-10-23T01:42:45.707Z,12.40
2022-10-23T01:45:16.722Z,12.40
2022-10-23T01:47:46.000Z,12.40
2022-10-23T01:50:18.332Z,12.40
2022-10-23T01:52:48.773Z,12.40
2022-10-23T01:55:17.654Z,12.30
2022-10-23T01:57:47.891Z,12.30
2022-10-23T02:00:18.847Z,12.30
2022-10-23T02:02:53.146Z,12.30
2022-10-23T02:05:25.510Z,12.20
2022-10-23T02:07:53.908Z,12.20
2022-10-23T02:10:23.415Z,12.10
2022-10-23T02:12:58.226Z,12.10
2022-10-23T02:15:30.447Z,12.10
2022-10-23T02:18:03.816Z,12.10
2022-10-23T02:20:37.007Z,12.10
2022-10-23T02:23:09.437Z,12.10
2022-10-23T02:25:39.825Z,12.10
2022-10-23T02:28:11.674Z,12.20
2022-10-23T02:30:46.402Z,12.20
2022-10-23T02:33:15.173Z,12.20
2022-10-23T02:35:43.458Z,12.20
2022-10-23T02:38:32.349Z,12.20
2022-10-23T02:41:04.345Z,12.30
2022-10-23T02:43:41.360Z,12.30
2022-10-23T02:46:11.377Z,12.20
2022-10-23T02:48:43.966Z,12.20
2022-10-23T02:51:15.664Z,12.10
2022-10-23T02:53:49.124Z,12.00
2022-10-23T02:56:21.922Z,12.00
2022-10-23T02:58:56.683Z,12.00
2022-10-23T03:01:28.730Z,12.00
2022-10-23T03:03:58.222Z,12.00
2022-10-23T03:06:26.727Z,12.00
2022-10-23T03:08:55.189Z,12.00
2022-10-23T03:11:26.347Z,12.00
2022-10-23T03:13:57.078Z,11.90
2022-10-23T03:16:25.094Z,11.90
2022-10-23T03:18:55.622Z,11.80
2022-10-23T03:21:24.422Z,11.60
2022-10-23T03:23:54.444Z,11.50
2022-10-23T03:26:30.148Z,11.40
2022-10-23T03:28:59.350Z,11.50
2022-10-23T03:31:27.192Z,11.40
2022-10-23T03:33:59.427Z,11.40
2022-10-23T03:36:27.279Z,11.50
2022-10-23T03:38:55.067Z,11.60
2022-10-23T03:41:22.844Z,11.50
2022-10-23T03:43:50.608Z,11.40
2022-10-23T03:46:19.779Z,11.30
2022-10-23T03:48:52.144Z,11.40
2022-10-23T03:51:20.237Z,11.20
2022-10-23T03:53:48.097Z,11.20
2022-10-23T03:56:17.142Z,11.20
2022-10-23T03:58:46.326Z,11.20
2022-10-23T04:01:15.108Z,11.20
2022-10-23T04:03:44.277Z,11.20
2022-10-23T04:06:12.140Z,11.30
2022-10-23T04:08:40.272Z,11.40
2022-10-23T04:11:14.791Z,11.30
2022-10-23T04:13:56.984Z,11.20
2022-10-23T04:16:25.118Z,11.10
2022-10-23T04:18:54.321Z,11.00
2022-10-23T04:21:23.703Z,10.90
2022-10-23T04:23:51.449Z,10.80
2022-10-23T04:26:19.924Z,10.70
2022-10-23T04:28:50.063Z,10.70
2022-10-23T04:31:18.006Z,10.60
2022-10-23T04:33:45.903Z,10.50
2022-10-23T04:36:28.775Z,10.60
2022-10-23T04:38:59.692Z,10.50
2022-10-23T04:41:28.236Z,10.50
2022-10-23T04:43:55.969Z,10.40
2022-10-23T04:46:23.808Z,10.40
2022-10-23T04:48:51.665Z,10.60
2022-10-23T04:51:47.613Z,10.60
2022-10-23T04:54:39.224Z,10.50
2022-10-23T04:57:22.314Z,10.50
2022-10-23T04:59:57.600Z,10.50
2022-10-23T05:02:25.963Z,10.50
2022-10-23T05:04:54.638Z,10.40
2022-10-23T05:07:50.167Z,10.40
2022-10-23T05:10:48.584Z,10.30
2022-10-23T05:13:19.953Z,10.10
2022-10-23T05:15:48.326Z,10.10
2022-10-23T05:18:21.431Z,10.00
2022-10-23T05:20:50.301Z,10.10
2022-10-23T05:23:21.182Z,10.30
2022-10-23T05:25:58.533Z,10.10
2022-10-23T05:28:26.393Z,10.00
2022-10-23T05:30:54.340Z,10.20
2022-10-23T05:33:27.061Z,10.20
2022-10-23T05:35:55.252Z,10.20
2022-10-23T05:38:26.599Z,10.20
2022-10-23T05:40:57.251Z,10.20
2022-10-23T05:43:26.889Z,10.20
2022-10-23T05:46:01.018Z,10.20
2022-10-23T05:48:47.142Z,10.40
2022-10-23T05:51:53.523Z,10.50
2022-10-23T05:54:41.161Z,10.40
2022-10-23T05:57:22.225Z,10.40
2022-10-23T05:59:52.308Z,10.60
2022-10-23T06:02:20.317Z,10.60
2022-10-23T06:04:56.854Z,10.60
2022-10-23T06:07:45.158Z,10.60
2022-10-23T06:10:14.734Z,10.70
2022-10-23T06:12:46.248Z,10.70
2022-10-23T06:15:17.542Z,10.70
2022-10-23T06:18:06.336Z,10.70
2022-10-23T06:20:37.775Z,10.70
2022-10-23T06:23:13.460Z,10.70
2022-10-23T06:26:03.206Z,10.70
2022-10-23T06:28:39.233Z,10.80
2022-10-23T06:31:07.302Z,10.90
2022-10-23T06:33:35.385Z,11.00
2022-10-23T06:36:06.062Z,11.20
2022-10-23T06:38:37.072Z,11.20
2022-10-23T06:41:07.624Z,11.20
2022-10-23T06:43:39.259Z,11.30
2022-10-23T06:46:21.419Z,11.50
2022-10-23T06:49:17.558Z,11.70
2022-10-23T06:51:48.931Z,12.10
2022-10-23T06:54:21.495Z,12.40
2022-10-23T06:56:50.711Z,12.80
2022-10-23T06:59:23.046Z,13.00
2022-10-23T07:04:26.022Z,12.70
2022-10-23T07:06:55.803Z,12.70
2022-10-23T07:09:27.666Z,12.60
2022-10-23T07:11:56.790Z,12.40
2022-10-23T07:14:36.037Z,12.50
2022-10-23T07:17:04.259Z,12.70
2022-10-23T07:19:32.248Z,12.60
2022-10-23T07:22:10.787Z,12.70
2022-10-23T07:24:41.228Z,12.70
2022-10-23T07:27:20.958Z,12.90
2022-10-23T07:29:55.848Z,13.10
2022-10-23T07:32:24.687Z,13.00
2022-10-23T07:35:11.845Z,13.00
2022-10-23T07:37:43.052Z,13.20
2022-10-23T07:40:14.624Z,13.10
2022-10-23T07:42:46.673Z,13.20
2022-10-23T07:45:16.532Z,13.20
2022-10-23T07:47:50.916Z,13.30
2022-10-23T07:50:19.855Z,13.40
2022-10-23T07:52:48.678Z,13.60
2022-10-23T07:55:18.269Z,13.70
2022-10-23T07:57:51.805Z,13.70
2022-10-23T08:00:43.018Z,13.80
2022-10-23T08:03:25.250Z,13.70
2022-10-23T08:05:53.751Z,13.80
2022-10-23T08:08:22.134Z,14.00
2022-10-23T08:10:52.842Z,14.30
2022-10-23T08:13:28.489Z,14.40
2022-10-23T08:16:02.294Z,14.40
2022-10-23T08:18:56.486Z,14.50
2022-10-23T08:21:24.555Z,14.50
2022-10-23T08:23:54.726Z,14.50
2022-10-23T08:26:22.673Z,14.50
2022-10-23T08:28:51.988Z,14.50
2022-10-23T08:31:21.507Z,14.50
2022-10-23T08:34:09.809Z,14.60
2022-10-23T08:36:39.262Z,14.60
2022-10-23T08:39:08.062Z,14.60
2022-10-23T08:41:38.939Z,14.70
2022-10-23T08:44:15.365Z,14.70
2022-10-23T08:46:45.875Z,14.60
2022-10-23T08:49:37.284Z,14.50
2022-10-23T08:52:14.044Z,14.60
2022-10-23T08:54:47.358Z,14.70
2022-10-23T08:57:16.655Z,14.70
2022-10-23T08:59:47.514Z,14.80
2022-10-23T09:02:18.228Z,14.90
2022-10-23T09:04:47.364Z,15.10
2022-10-23T09:07:19.615Z,15.10
2022-10-23T09:09:56.231Z,15.20
2022-10-23T09:12:25.251Z,15.10
2022-10-23T09:15:08.168Z,15.20
2022-10-23T09:17:38.021Z,15.30
2022-10-23T09:20:17.266Z,15.50
2022-10-23T09:22:45.398Z,15.70
2022-10-23T09:25:17.191Z,15.90
2022-10-23T09:27:48.646Z,16.10
2022-10-23T09:30:31.902Z,15.90
2022-10-23T09:33:00.226Z,15.80
2022-10-23T09:35:29.399Z,15.90
2022-10-23T09:37:57.864Z,15.90
2022-10-23T09:40:29.167Z,15.90
2022-10-23T09:42:58.924Z,15.90
2022-10-23T09:45:28.526Z,15.90
2022-10-23T09:48:10.970Z,16.00
2022-10-23T09:50:39.076Z,16.20
2022-10-23T09:53:06.964Z,16.30
2022-10-23T09:55:35.031Z,16.30
2022-10-23T09:58:02.850Z,16.40
2022-10-23T10:00:30.915Z,16.40
2022-10-23T10:02:59.700Z,16.50
2022-10-23T10:05:40.566Z,16.60
2022-10-23T10:08:21.570Z,16.60
2022-10-23T10:10:51.416Z,16.70
2022-10-23T10:13:31.376Z,16.70
2022-10-23T10:16:01.153Z,16.90
2022-10-23T10:18:33.188Z,16.90
2022-10-23T10:21:12.485Z,17.00
2022-10-23T10:23:45.194Z,17.10
2022-10-23T10:26:18.676Z,17.20
2022-10-23T10:28:52.345Z,17.30
2022-10-23T10:31:22.456Z,17.30
2022-10-23T10:33:54.799Z,17.40
2022-10-23T10:36:32.480Z,17.40
2022-10-23T10:39:01.329Z,17.50
2022-10-23T10:41:42.800Z,17.50
2022-10-23T10:44:20.611Z,17.50
2022-10-23T10:46:51.393Z,17.60
2022-10-23T10:49:21.494Z,17.60
2022-10-23T10:52:16.789Z,17.70
2022-10-23T10:54:48.742Z,17.70
2022-10-23T10:57:21.600Z,17.80
2022-10-23T10:59:52.570Z,17.80
2022-10-23T11:02:26.722Z,17.90
2022-10-23T11:04:58.318Z,17.70
2022-10-23T11:07:30.495Z,17.70
2022-10-23T11:09:59.987Z,17.80
2022-10-23T11:12:29.570Z,17.80
2022-10-23T11:14:57.483Z,17.60
2022-10-23T11:17:27.331Z,17.60
2022-10-23T11:19:59.447Z,17.80
2022-10-23T11:22:31.206Z,17.90
2022-10-23T11:25:19.009Z,18.00
2022-10-23T11:27:58.161Z,18.20
2022-10-23T11:30:36.341Z,18.50
2022-10-23T11:33:19.036Z,18.40
2022-10-23T11:36:04.077Z,18.40
2022-10-23T11:38:35.318Z,18.40
2022-10-23T11:41:04.738Z,18.60
2022-10-23T11:43:36.873Z,18.60
2022-10-23T11:46:14.063Z,18.60
2022-10-23T11:48:43.331Z,18.60
2022-10-23T11:51:27.556Z,18.70
2022-10-23T11:54:07.252Z,18.70
2022-10-23T11:56:35.076Z,18.70
2022-10-23T11:59:20.410Z,18.70
2022-10-23T12:01:49.650Z,18.80
2022-10-23T12:04:22.055Z,18.90
2022-10-23T12:06:52.062Z,18.90
2022-10-23T12:09:25.509Z,18.60
2022-10-23T12:12:19.891Z,18.70
2022-10-23T12:14:48.143Z,18.80
2022-10-23T12:17:33.479Z,18.90
2022-10-23T12:20:13.588Z,18.80
2022-10-23T12:22:42.996Z,18.80
2022-10-23T12:25:15.806Z,18.80
2022-10-23T12:27:50.633Z,18.80
2022-10-23T12:30:21.234Z,18.70
2022-10-23T12:33:03.686Z,18.60
2022-10-23T12:35:48.717Z,18.60
2022-10-23T12:38:18.681Z,18.70
2022-10-23T12:40:51.864Z,18.70
2022-10-23T12:43:25.584Z,18.60
2022-10-23T12:45:56.296Z,18.60
2022-10-23T12:48:25.283Z,18.50
2022-10-23T12:50:54.148Z,18.50
2022-10-23T12:53:24.527Z,18.40
2022-10-23T12:55:55.042Z,18.40
2022-10-23T12:58:23.465Z,18.40
2022-10-23T13:00:54.931Z,18.40
2022-10-23T13:03:23.575Z,18.40
2022-10-23T13:05:52.397Z,18.50
2022-10-23T13:08:21.156Z,18.40
2022-10-23T13:11:15.524Z,18.40
2022-10-23T13:13:43.555Z,18.40
2022-10-23T13:16:15.888Z,18.40
2022-10-23T13:18:44.015Z,18.50
2022-10-23T13:21:16.917Z,18.50
2022-10-23T13:23:44.827Z,18.50
2022-10-23T13:26:26.413Z,18.40
2022-10-23T13:28:54.273Z,18.50
2022-10-23T13:31:26.715Z,18.40
2022-10-23T13:34:05.457Z,18.40
2022-10-23T13:36:35.945Z,18.30
2022-10-23T13:39:15.974Z,18.30
2022-10-23T13:41:46.021Z,18.30
2022-10-23T13:44:15.222Z,18.40
2022-10-23T13:46:43.363Z,18.40
2022-10-23T13:49:11.395Z,18.50
2022-10-23T13:51:42.607Z,18.40
2022-10-23T13:54:14.549Z,18.20
2022-10-23T13:56:42.538Z,18.20
2022-10-23T13:59:13.523Z,18.20
2022-10-23T14:01:41.938Z,18.10
2022-10-23T14:04:10.069Z,18.10
2022-10-23T14:06:38.464Z,18.00
2022-10-23T14:09:06.812Z,18.00
2022-10-23T14:11:34.833Z,18.00
2022-10-23T14:14:02.765Z,17.90
2022-10-23T14:16:32.086Z,17.90
2022-10-23T14:18:59.978Z,17.90
2022-10-23T14:21:30.215Z,17.80
2022-10-23T14:23:58.338Z,17.80
2022-10-23T14:26:27.511Z,17.70
2022-10-23T14:28:55.594Z,17.60
2022-10-23T14:31:23.584Z,17.70
2022-10-23T14:33:56.797Z,17.70
2022-10-23T14:36:26.454Z,17.60
2022-10-23T14:38:59.594Z,17.60
2022-10-23T14:41:27.840Z,17.60
2022-10-23T14:43:57.852Z,17.60
2022-10-23T14:46:25.984Z,17.50
2022-10-23T14:48:56.456Z,17.50
2022-10-23T14:51:28.734Z,17.50
2022-10-23T14:53:58.915Z,17.50
2022-10-23T14:56:27.338Z,17.40
2022-10-23T14:59:02.498Z,17.40
2022-10-23T15:01:30.680Z,17.30
2022-10-23T15:03:58.806Z,17.30
2022-10-23T15:06:28.020Z,17.20
2022-10-23T15:08:56.109Z,17.20
2022-10-23T15:11:24.423Z,17.10
2022-10-23T15:13:54.655Z,17.10
2022-10-23T15:16:25.509Z,17.00
2022-10-23T15:18:53.712Z,17.00
2022-10-23T15:21:21.623Z,16.90
2022-10-23T15:23:50.827Z,16.80
2022-10-23T15:26:22.955Z,16.80
2022-10-23T15:28:53.701Z,16.70
2022-10-23T15:31:43.674Z,16.70
2022-10-23T15:34:12.337Z,16.60
2022-10-23T15:36:40.162Z,16.50
2022-10-23T15:39:10.209Z,16.50
2022-10-23T15:41:39.076Z,16.40
2022-10-23T15:44:07.852Z,16.30
2022-10-23T15:46:36.035Z,16.30
2022-10-23T15:49:04.093Z,16.20
2022-10-23T15:51:32.058Z,16.10
2022-10-23T15:54:00.106Z,16.00
2022-10-23T15:56:29.351Z,16.00
2022-10-23T15:58:57.297Z,15.90
2022-10-23T16:01:25.567Z,15.80
2022-10-23T16:03:53.895Z,15.80
2022-10-23T16:06:22.113Z,15.70
2022-10-23T16:08:50.055Z,15.60
2022-10-23T16:11:19.591Z,15.60
2022-10-23T16:13:48.885Z,15.60
2022-10-23T16:16:19.667Z,15.60
2022-10-23T16:18:47.651Z,15.60
2022-10-23T16:21:17.950Z,15.60
2022-10-23T16:23:46.033Z,15.70
2022-10-23T16:26:14.442Z,15.70
2022-10-23T16:28:43.896Z,15.70
2022-10-23T16:31:19.210Z,15.70
2022-10-23T16:33:49.047Z,15.70
2022-10-23T16:36:17.423Z,15.60
2022-10-23T16:39:04.731Z,15.60
2022-10-23T16:41:50.845Z,15.60
2022-10-23T16:44:20.359Z,15.60
2022-10-23T16:47:00.248Z,15.60
2022-10-23T16:49:29.720Z,15.60
2022-10-23T16:51:57.614Z,15.50
2022-10-23T16:54:25.407Z,15.50
2022-10-23T16:56:53.201Z,15.50
2022-10-23T16:59:21.007Z,15.40
2022-10-23T17:01:48.962Z,15.40
2022-10-23T17:04:18.305Z,15.40
2022-10-23T17:06:46.549Z,15.30
2022-10-23T17:09:14.348Z,15.30
2022-10-23T17:11:45.080Z,15.30
2022-10-23T17:14:14.666Z,15.30
2022-10-23T17:16:44.406Z,15.40
2022-10-23T17:19:20.872Z,15.30
2022-10-23T17:21:56.808Z,15.30
2022-10-23T17:24:24.878Z,15.30
2022-10-23T17:26:52.973Z,15.30
2022-10-23T17:29:21.661Z,15.30
2022-10-23T17:31:50.363Z,15.30
2022-10-23T17:34:19.365Z,15.30
2022-10-23T17:36:48.959Z,15.30
2022-10-23T17:39:19.590Z,15.30
2022-10-23T17:41:48.010Z,15.30
2022-10-23T17:44:16.059Z,15.30
2022-10-23T17:46:44.004Z,15.20
2022-10-23T17:49:12.477Z,15.30
2022-10-23T17:51:40.404Z,15.30
2022-10-23T17:54:09.170Z,15.30
2022-10-23T17:56:38.780Z,15.30
2022-10-23T17:59:07.930Z,15.30
2022-10-23T18:01:36.290Z,15.30
2022-10-23T18:04:05.787Z,15.30
2022-10-23T18:06:34.827Z,15.40
2022-10-23T18:09:03.930Z,15.40
2022-10-23T18:11:33.245Z,15.30
2022-10-23T18:14:02.820Z,15.40
2022-10-23T18:16:30.717Z,15.30
2022-10-23T18:19:00.077Z,15.30
2022-10-23T18:21:28.687Z,15.20
2022-10-23T18:23:56.932Z,15.30
2022-10-23T18:26:28.365Z,15.20
2022-10-23T18:28:58.760Z,15.20
2022-10-23T18:31:30.223Z,15.20
2022-10-23T18:33:58.417Z,15.10
2022-10-23T18:36:27.305Z,15.10
2022-10-23T18:38:57.674Z,15.00
2022-10-23T18:41:25.811Z,15.00
2022-10-23T18:43:54.539Z,15.00
2022-10-23T18:46:22.807Z,15.00
2022-10-23T18:48:51.970Z,14.90
2022-10-23T18:51:21.032Z,14.80
2022-10-23T18:53:49.230Z,14.90
2022-10-23T18:56:21.971Z,14.90
2022-10-23T18:58:51.717Z,14.90
2022-10-23T19:01:19.801Z,14.80
2022-10-23T19:03:47.785Z,14.70
2022-10-23T19:06:17.500Z,14.70
2022-10-23T19:08:45.870Z,14.60
2022-10-23T19:11:15.422Z,14.60
2022-10-23T19:13:43.270Z,14.60
2022-10-23T19:16:14.003Z,14.60
2022-10-23T19:18:42.674Z,14.50
2022-10-23T19:21:10.568Z,14.50
2022-10-23T19:23:41.683Z,14.50
2022-10-23T19:26:12.036Z,14.50
2022-10-23T19:28:40.865Z,14.50
2022-10-23T19:31:09.874Z,14.50
2022-10-23T19:33:38.828Z,14.50
2022-10-23T19:36:13.865Z,14.50
2022-10-23T19:38:43.554Z,14.50
2022-10-23T19:41:11.632Z,14.40
2022-10-23T19:43:39.505Z,14.40
2022-10-23T19:46:10.972Z,14.40
2022-10-23T19:48:42.457Z,14.40
2022-10-23T19:51:10.589Z,14.40
2022-10-23T19:53:38.439Z,14.30
2022-10-23T19:56:08.621Z,14.30
2022-10-23T19:58:36.426Z,14.30
2022-10-23T20:01:12.773Z,14.30
2022-10-23T20:03:41.616Z,14.30
2022-10-23T20:06:10.868Z,14.30
2022-10-23T20:08:38.939Z,14.20
2022-10-23T20:11:08.273Z,14.20
2022-10-23T20:13:36.286Z,14.20
2022-10-23T20:16:04.240Z,14.20
2022-10-23T20:18:32.103Z,14.10
2022-10-23T20:21:01.965Z,14.10
2022-10-23T20:23:32.187Z,14.00
2022-10-23T20:26:05.170Z,14.00
2022-10-23T20:28:34.751Z,14.00
2022-10-23T20:31:05.665Z,14.10
2022-10-23T20:33:33.690Z,14.00
2022-10-23T20:36:01.577Z,14.00
2022-10-23T20:38:29.738Z,14.00
2022-10-23T20:41:00.289Z,14.00
2022-10-23T20:43:28.134Z,13.90
2022-10-23T20:45:57.345Z,13.90
2022-10-23T20:48:25.216Z,13.90
2022-10-23T20:50:53.075Z,13.80
2022-10-23T20:53:21.068Z,13.80
2022-10-23T20:55:48.916Z,13.80
2022-10-23T20:58:16.813Z,13.70
2022-10-23T21:00:44.654Z,13.70
2022-10-23T21:03:14.037Z,13.60
2022-10-23T21:05:43.521Z,13.60
2022-10-23T21:08:11.563Z,13.60
2022-10-23T21:10:45.321Z,13.50
2022-10-23T21:13:13.312Z,13.50
2022-10-23T21:15:41.289Z,13.50
2022-10-23T21:18:33.595Z,13.40
2022-10-23T21:21:03.518Z,13.40
2022-10-23T21:23:31.384Z,13.30
2022-10-23T21:26:02.187Z,13.20
2022-10-23T21:28:33.242Z,13.20
2022-10-23T21:31:03.542Z,13.20
2022-10-23T21:33:31.400Z,13.20
2022-10-23T21:36:12.785Z,13.20
2022-10-23T21:38:42.861Z,13.10
2022-10-23T21:41:12.102Z,13.10
2022-10-23T21:43:40.252Z,13.10
2022-10-23T21:46:08.766Z,13.20
2022-10-23T21:48:37.622Z,13.30
2022-10-23T21:51:05.552Z,13.40
2022-10-23T21:53:33.723Z,13.50
2022-10-23T21:56:06.165Z,13.60
2022-10-23T21:58:34.264Z,13.70
2022-10-23T22:01:02.187Z,13.70
2022-10-23T22:03:30.210Z,13.70
2022-10-23T22:05:58.821Z,13.80
2022-10-23T22:08:26.940Z,13.80
2022-10-23T22:10:55.156Z,13.80
2022-10-23T22:13:24.327Z,13.80
2022-10-23T22:15:52.112Z,13.80
2022-10-23T22:18:19.859Z,13.80
2022-10-23T22:20:47.606Z,13.90
2022-10-23T22:23:15.394Z,13.90
2022-10-23T22:25:43.166Z,13.90
2022-10-23T22:28:11.038Z,13.90
2022-10-23T22:30:40.103Z,14.00
2022-10-23T22:33:07.859Z,14.00
2022-10-23T22:35:37.976Z,14.00
2022-10-23T22:38:07.844Z,14.00
2022-10-23T22:40:37.170Z,14.00
2022-10-23T22:43:05.077Z,13.90
2022-10-23T22:45:32.842Z,13.90
2022-10-23T22:48:02.124Z,13.90
2022-10-23T22:50:29.892Z,13.90
2022-10-23T22:52:57.638Z,13.90
2022-10-23T22:55:25.483Z,13.80
2022-10-23T22:57:53.269Z,13.80
2022-10-23T23:00:21.094Z,13.90
2022-10-23T23:02:48.964Z,13.90
2022-10-23T23:05:18.191Z,13.90
2022-10-23T23:07:46.268Z,13.90
2022-10-23T23:10:14.206Z,13.90
2022-10-23T23:12:42.045Z,13.80
2022-10-23T23:15:10.379Z,13.80
2022-10-23T23:17:38.142Z,13.70
2022-10-23T23:20:06.537Z,13.70
2022-10-23T23:22:35.763Z,13.60
2022-10-23T23:25:03.636Z,13.60
2022-10-23T23:27:31.470Z,13.50
2022-10-23T23:29:59.240Z,13.60
2022-10-23T23:32:27.096Z,13.60
2022-10-23T23:34:54.970Z,13.50
2022-10-23T23:37:22.733Z,13.50
2022-10-23T23:39:51.890Z,13.50
2022-10-23T23:42:19.661Z,13.50
2022-10-23T23:44:56.050Z,13.60
2022-10-23T23:47:37.879Z,13.50
2022-10-23T23:50:06.605Z,13.60
2022-10-23T23:52:34.579Z,13.60
2022-10-23T23:55:03.796Z,13.60
2022-10-23T23:57:31.618Z,13.60
2022-10-23T23:59:59.389Z,13.60
